createdAt,value
2019-05-19T00:00:36.499Z,99.90
2019-05-19T00:03:06.474Z,99.90
2019-05-19T00:05:36.114Z,99.90
2019-05-19T00:08:05.843Z,99.90
2019-05-19T00:10:35.924Z,99.90
2019-05-19T00:13:05.526Z,99.90
2019-05-19T00:15:35.293Z,99.90
2019-05-19T00:18:04.987Z,99.90
2019-05-19T00:20:34.436Z,99.90
2019-05-19T00:23:04.231Z,99.90
2019-05-19T00:25:34.897Z,99.90
2019-05-19T00:28:05.004Z,99.90
2019-05-19T00:30:34.506Z,99.90
2019-05-19T00:33:04.018Z,99.90
2019-05-19T00:35:33.766Z,99.90
2019-05-19T00:38:03.373Z,99.90
2019-05-19T00:40:32.922Z,99.90
2019-05-19T00:43:02.565Z,99.90
2019-05-19T00:45:32.093Z,99.90
2019-05-19T00:48:01.825Z,99.90
2019-05-19T00:50:31.444Z,99.90
2019-05-19T00:53:01.216Z,99.90
2019-05-19T00:55:31.666Z,99.90
2019-05-19T00:58:03.092Z,99.90
2019-05-19T01:00:32.727Z,99.90
2019-05-19T01:03:02.222Z,99.90
2019-05-19T01:05:31.718Z,99.90
2019-05-19T01:08:01.308Z,99.90
2019-05-19T01:10:30.921Z,99.90
2019-05-19T01:13:00.412Z,99.90
2019-05-19T01:15:30.080Z,99.90
2019-05-19T01:17:59.584Z,99.90
2019-05-19T01:20:29.070Z,99.90
2019-05-19T01:22:58.576Z,99.90
2019-05-19T01:25:28.101Z,99.90
2019-05-19T01:27:57.753Z,99.90
2019-05-19T01:30:28.243Z,99.90
2019-05-19T01:32:57.722Z,99.90
2019-05-19T01:35:27.491Z,99.90
2019-05-19T01:37:56.994Z,99.90
2019-05-19T01:40:26.460Z,99.90
2019-05-19T01:42:55.966Z,99.90
2019-05-19T01:45:25.993Z,99.90
2019-05-19T01:47:55.540Z,99.90
2019-05-19T01:50:25.007Z,99.90
2019-05-19T01:52:54.516Z,99.90
2019-05-19T01:55:24.106Z,99.90
2019-05-19T01:57:53.633Z,99.90
2019-05-19T02:00:23.376Z,99.90
2019-05-19T02:02:52.943Z,99.90
2019-05-19T02:05:22.579Z,99.90
2019-05-19T02:07:52.088Z,99.90
2019-05-19T02:10:21.883Z,99.90
2019-05-19T02:12:51.354Z,99.90
2019-05-19T02:15:21.211Z,99.90
2019-05-19T02:17:50.724Z,99.90
2019-05-19T02:20:32.232Z,99.90
2019-05-19T02:22:51.902Z,99.90
2019-05-19T02:25:21.900Z,99.90
2019-05-19T02:27:51.387Z,99.90
2019-05-19T02:30:21.510Z,99.90
2019-05-19T02:32:51.002Z,99.90
2019-05-19T02:35:20.630Z,99.90
2019-05-19T02:37:50.419Z,99.90
2019-05-19T02:40:20.401Z,99.90
2019-05-19T02:42:51.726Z,99.90
2019-05-19T02:45:21.297Z,99.90
2019-05-19T02:47:52.140Z,99.90
2019-05-19T02:50:22.084Z,99.90
2019-05-19T02:52:52.918Z,99.90
2019-05-19T02:55:22.979Z,99.90
2019-05-19T02:57:54.074Z,99.90
2019-05-19T03:00:39.234Z,99.90
2019-05-19T03:03:09.348Z,99.90
2019-05-19T03:05:39.910Z,99.90
2019-05-19T03:08:09.374Z,99.90
2019-05-19T03:10:38.884Z,99.90
2019-05-19T03:13:08.483Z,99.90
2019-05-19T03:15:38.020Z,99.90
2019-05-19T03:18:07.642Z,99.90
2019-05-19T03:20:37.211Z,99.90
2019-05-19T03:23:06.765Z,99.90
2019-05-19T03:25:36.386Z,99.90
2019-05-19T03:28:06.122Z,99.90
2019-05-19T03:30:50.342Z,99.90
2019-05-19T03:33:24.726Z,99.90
2019-05-19T03:35:54.234Z,99.90
2019-05-19T03:38:23.726Z,99.90
2019-05-19T03:40:53.298Z,99.90
2019-05-19T03:43:22.786Z,99.90
2019-05-19T03:45:52.291Z,99.90
2019-05-19T03:48:21.783Z,99.90
2019-05-19T03:50:51.301Z,99.90
2019-05-19T03:53:20.950Z,99.90
2019-05-19T03:55:50.431Z,99.90
2019-05-19T03:58:20.087Z,99.90
2019-05-19T04:00:49.685Z,99.90
2019-05-19T04:03:19.405Z,99.90
2019-05-19T04:05:48.895Z,99.90
2019-05-19T04:08:18.596Z,99.90
2019-05-19T04:10:48.154Z,99.90
2019-05-19T04:13:17.654Z,99.90
2019-05-19T04:15:47.235Z,99.90
2019-05-19T04:18:16.813Z,99.90
2019-05-19T04:20:46.535Z,99.90
2019-05-19T04:23:16.222Z,99.90
2019-05-19T04:25:45.848Z,99.90
2019-05-19T04:28:15.347Z,99.90
2019-05-19T04:30:45.027Z,99.90
2019-05-19T04:33:14.500Z,99.90
2019-05-19T04:35:44.040Z,99.90
2019-05-19T04:38:13.532Z,99.90
2019-05-19T04:40:43.968Z,99.90
2019-05-19T04:43:13.526Z,99.90
2019-05-19T04:45:43.017Z,99.90
2019-05-19T04:48:12.510Z,99.90
2019-05-19T04:50:42.077Z,99.90
2019-05-19T04:53:11.555Z,99.90
2019-05-19T04:55:41.033Z,99.90
2019-05-19T04:58:10.608Z,99.90
2019-05-19T05:00:40.124Z,99.90
2019-05-19T05:03:09.602Z,99.90
2019-05-19T05:05:39.245Z,99.90
2019-05-19T05:08:25.291Z,99.90
2019-05-19T05:10:40.063Z,99.90
2019-05-19T05:13:09.538Z,99.90
2019-05-19T05:15:39.065Z,99.90
2019-05-19T05:18:08.564Z,99.90
2019-05-19T05:20:38.134Z,99.90
2019-05-19T05:23:07.659Z,99.90
2019-05-19T05:25:37.230Z,99.90
2019-05-19T05:28:06.789Z,99.90
2019-05-19T05:30:36.330Z,99.90
2019-05-19T05:33:06.039Z,99.90
2019-05-19T05:35:35.557Z,99.90
2019-05-19T05:38:05.081Z,99.90
2019-05-19T05:40:34.566Z,99.90
2019-05-19T05:43:04.202Z,99.90
2019-05-19T05:45:33.792Z,99.90
2019-05-19T05:48:03.466Z,99.90
2019-05-19T05:50:33.171Z,99.60
2019-05-19T05:53:02.632Z,99.90
2019-05-19T05:55:32.118Z,99.90
2019-05-19T05:58:01.637Z,99.90
2019-05-19T06:00:31.113Z,99.90
2019-05-19T06:03:00.590Z,99.90
2019-05-19T06:05:30.084Z,99.90
2019-05-19T06:07:59.753Z,99.90
2019-05-19T06:10:29.245Z,99.90
2019-05-19T06:12:58.804Z,99.90
2019-05-19T06:15:28.298Z,99.90
2019-05-19T06:17:57.761Z,99.90
2019-05-19T06:20:27.364Z,99.90
2019-05-19T06:22:57.334Z,99.90
2019-05-19T06:25:27.055Z,99.90
2019-05-19T06:27:56.749Z,99.90
2019-05-19T06:30:26.239Z,99.90
2019-05-19T06:32:57.567Z,99.90
2019-05-19T06:35:27.306Z,99.90
2019-05-19T06:37:56.791Z,99.90
2019-05-19T06:40:26.532Z,99.90
2019-05-19T06:42:56.297Z,99.90
2019-05-19T06:45:26.019Z,99.90
2019-05-19T06:47:55.910Z,99.90
2019-05-19T06:50:25.499Z,99.90
2019-05-19T06:53:12.367Z,99.90
2019-05-19T06:55:26.358Z,99.90
2019-05-19T06:57:55.905Z,99.90
2019-05-19T07:00:25.921Z,99.90
2019-05-19T07:02:55.444Z,99.90
2019-05-19T07:05:24.930Z,99.90
2019-05-19T07:07:54.530Z,99.90
2019-05-19T07:10:24.167Z,99.90
2019-05-19T07:12:53.646Z,99.90
2019-05-19T07:15:23.294Z,99.90
2019-05-19T07:17:52.795Z,99.90
2019-05-19T07:20:22.503Z,99.90
2019-05-19T07:22:52.028Z,99.90
2019-05-19T07:25:21.589Z,99.90
2019-05-19T07:27:51.343Z,98.70
2019-05-19T07:30:21.102Z,97.90
2019-05-19T07:32:50.662Z,94.50
2019-05-19T07:35:20.472Z,91.20
2019-05-19T07:37:49.961Z,84.40
2019-05-19T07:40:19.535Z,87.00
2019-05-19T07:42:49.041Z,88.70
2019-05-19T07:45:19.040Z,89.80
2019-05-19T07:47:48.688Z,85.60
2019-05-19T07:50:18.354Z,80.30
2019-05-19T07:52:47.912Z,80.90
2019-05-19T07:55:17.420Z,78.00
2019-05-19T07:57:46.905Z,68.20
2019-05-19T08:00:16.841Z,68.90
2019-05-19T08:02:46.405Z,71.60
2019-05-19T08:05:16.009Z,64.10
2019-05-19T08:07:45.613Z,59.40
2019-05-19T08:10:15.699Z,58.40
2019-05-19T08:12:45.271Z,59.40
2019-05-19T08:15:15.031Z,57.40
2019-05-19T08:17:44.568Z,54.30
2019-05-19T08:20:14.947Z,54.90
2019-05-19T08:22:44.571Z,57.40
2019-05-19T08:25:14.838Z,58.30
2019-05-19T08:27:44.348Z,61.80
2019-05-19T08:30:14.164Z,59.90
2019-05-19T08:32:43.657Z,56.90
2019-05-19T08:35:13.503Z,59.90
2019-05-19T08:37:42.977Z,58.60
2019-05-19T08:40:12.693Z,58.70
2019-05-19T08:42:42.357Z,57.90
2019-05-19T08:45:12.348Z,56.20
2019-05-19T08:47:42.002Z,60.20
2019-05-19T08:50:11.892Z,58.10
2019-05-19T08:52:41.569Z,57.50
2019-05-19T08:55:11.336Z,61.90
2019-05-19T08:57:40.855Z,66.60
2019-05-19T09:00:11.256Z,68.20
2019-05-19T09:02:40.849Z,67.30
2019-05-19T09:05:11.602Z,67.80
2019-05-19T09:07:41.173Z,68.80
2019-05-19T09:10:11.567Z,70.80
2019-05-19T09:12:41.140Z,72.70
2019-05-19T09:15:11.339Z,72.80
2019-05-19T09:17:40.975Z,72.20
2019-05-19T09:20:10.774Z,81.30
2019-05-19T09:22:40.370Z,77.70
2019-05-19T09:25:10.265Z,80.10
2019-05-19T09:27:39.948Z,81.30
2019-05-19T09:30:11.528Z,81.90
2019-05-19T09:32:41.118Z,81.30
2019-05-19T09:35:11.595Z,82.60
2019-05-19T09:37:41.232Z,80.30
2019-05-19T09:40:12.220Z,79.70
2019-05-19T09:42:41.743Z,82.20
2019-05-19T09:45:11.870Z,83.80
2019-05-19T09:47:41.886Z,79.70
2019-05-19T09:50:12.279Z,74.60
2019-05-19T09:52:41.843Z,74.10
2019-05-19T09:55:11.803Z,74.50
2019-05-19T09:57:41.419Z,71.90
2019-05-19T10:00:11.466Z,74.60
2019-05-19T10:02:41.076Z,80.90
2019-05-19T10:05:12.000Z,73.30
2019-05-19T10:07:41.616Z,68.50
2019-05-19T10:10:32.534Z,62.80
2019-05-19T10:13:02.105Z,59.40
2019-05-19T10:15:31.611Z,58.90
2019-05-19T10:18:01.140Z,61.60
2019-05-19T10:20:30.862Z,68.50
2019-05-19T10:23:00.688Z,67.80
2019-05-19T10:25:30.304Z,73.70
2019-05-19T10:28:00.148Z,75.90
2019-05-19T10:30:29.685Z,76.00
2019-05-19T10:32:59.334Z,76.40
2019-05-19T10:35:28.841Z,71.50
2019-05-19T10:37:58.505Z,72.90
2019-05-19T10:40:28.124Z,75.10
2019-05-19T10:42:58.159Z,74.10
2019-05-19T10:45:27.664Z,73.40
2019-05-19T10:47:57.459Z,70.00
2019-05-19T10:50:27.017Z,68.80
2019-05-19T10:52:57.183Z,69.60
2019-05-19T10:55:36.135Z,63.70
2019-05-19T10:57:58.409Z,63.60
2019-05-19T11:00:28.371Z,67.30
2019-05-19T11:02:58.445Z,67.30
2019-05-19T11:05:28.265Z,69.70
2019-05-19T11:07:58.125Z,68.90
2019-05-19T11:10:27.726Z,76.60
2019-05-19T11:12:57.662Z,70.80
2019-05-19T11:15:27.146Z,71.40
2019-05-19T11:17:56.969Z,70.50
2019-05-19T11:20:26.487Z,68.90
2019-05-19T11:22:56.037Z,69.00
2019-05-19T11:25:33.551Z,66.40
2019-05-19T11:27:56.955Z,69.70
2019-05-19T11:30:26.504Z,76.40
2019-05-19T11:32:56.152Z,71.20
2019-05-19T11:35:26.536Z,70.30
2019-05-19T11:37:56.029Z,70.60
2019-05-19T11:40:25.535Z,72.10
2019-05-19T11:42:55.203Z,71.00
2019-05-19T11:45:24.788Z,70.30
2019-05-19T11:47:54.372Z,71.10
2019-05-19T11:50:23.884Z,70.20
2019-05-19T11:52:53.646Z,72.10
2019-05-19T11:55:23.160Z,69.30
2019-05-19T11:57:52.742Z,72.60
2019-05-19T12:00:22.713Z,77.50
2019-05-19T12:02:53.121Z,74.80
2019-05-19T12:05:22.701Z,73.70
2019-05-19T12:07:52.334Z,73.20
2019-05-19T12:10:21.839Z,71.50
2019-05-19T12:12:51.395Z,71.80
2019-05-19T12:15:40.222Z,72.70
2019-05-19T12:18:09.827Z,72.70
2019-05-19T12:20:39.357Z,73.00
2019-05-19T12:23:08.878Z,76.10
2019-05-19T12:25:38.492Z,74.80
2019-05-19T12:28:08.142Z,82.20
2019-05-19T12:30:37.725Z,76.50
2019-05-19T12:33:07.269Z,80.90
2019-05-19T12:35:39.016Z,85.30
2019-05-19T12:38:08.456Z,82.40
2019-05-19T12:40:37.934Z,83.70
2019-05-19T12:43:07.469Z,88.40
2019-05-19T12:45:37.054Z,87.70
2019-05-19T12:48:06.833Z,92.00
2019-05-19T12:50:36.360Z,96.70
2019-05-19T12:53:06.118Z,99.90
2019-05-19T12:55:35.707Z,99.90
2019-05-19T12:58:05.486Z,99.90
2019-05-19T13:00:35.251Z,99.90
2019-05-19T13:03:04.886Z,99.90
2019-05-19T13:05:34.666Z,99.90
2019-05-19T13:08:04.173Z,99.90
2019-05-19T13:10:33.838Z,99.90
2019-05-19T13:13:03.377Z,99.90
2019-05-19T13:15:32.890Z,99.90
2019-05-19T13:18:02.648Z,99.90
2019-05-19T13:20:32.355Z,99.90
2019-05-19T13:23:01.822Z,99.90
2019-05-19T13:25:31.432Z,99.90
2019-05-19T13:28:01.488Z,99.90
2019-05-19T13:30:30.999Z,99.90
2019-05-19T13:33:00.548Z,99.90
2019-05-19T13:35:30.138Z,99.90
2019-05-19T13:37:59.744Z,99.90
2019-05-19T13:40:29.301Z,99.90
2019-05-19T13:42:58.858Z,99.90
2019-05-19T13:45:28.699Z,99.90
2019-05-19T13:47:58.466Z,99.90
2019-05-19T13:50:28.115Z,99.90
2019-05-19T13:52:57.980Z,99.90
2019-05-19T13:55:28.071Z,99.90
2019-05-19T13:57:58.067Z,99.90
2019-05-19T14:00:27.970Z,99.90
2019-05-19T14:02:58.078Z,99.90
2019-05-19T14:05:27.766Z,99.90
2019-05-19T14:07:57.511Z,99.90
2019-05-19T14:10:27.097Z,99.90
2019-05-19T14:12:56.693Z,99.90
2019-05-19T14:15:26.425Z,99.90
2019-05-19T14:17:56.043Z,99.90
2019-05-19T14:20:25.598Z,99.90
2019-05-19T14:22:55.297Z,99.90
2019-05-19T14:25:25.125Z,99.90
2019-05-19T14:27:54.721Z,99.90
2019-05-19T14:30:24.259Z,99.90
2019-05-19T14:32:53.778Z,99.90
2019-05-19T14:35:23.317Z,99.90
2019-05-19T14:37:52.854Z,99.90
2019-05-19T14:40:22.669Z,99.90
2019-05-19T14:42:53.986Z,99.90
2019-05-19T14:45:23.901Z,99.90
2019-05-19T14:47:53.443Z,99.90
2019-05-19T14:50:23.087Z,99.90
2019-05-19T14:52:52.618Z,99.90
2019-05-19T14:55:22.359Z,99.90
2019-05-19T14:57:51.867Z,99.90
2019-05-19T15:00:22.368Z,99.90
2019-05-19T15:02:51.996Z,99.90
2019-05-19T15:05:23.177Z,99.90
2019-05-19T15:07:52.671Z,99.90
2019-05-19T15:10:22.902Z,99.90
2019-05-19T15:12:52.370Z,99.90
2019-05-19T15:15:21.963Z,99.90
2019-05-19T15:17:51.492Z,99.90
2019-05-19T15:20:21.076Z,99.90
2019-05-19T15:22:50.557Z,99.90
2019-05-19T15:25:20.083Z,99.90
2019-05-19T15:27:59.816Z,99.90
2019-05-19T15:30:21.037Z,99.90
2019-05-19T15:32:50.625Z,99.90
2019-05-19T15:35:20.461Z,99.90
2019-05-19T15:37:50.051Z,99.90
2019-05-19T15:40:19.710Z,99.90
2019-05-19T15:42:49.174Z,99.90
2019-05-19T15:45:18.936Z,99.90
2019-05-19T15:47:48.579Z,99.90
2019-05-19T15:50:19.325Z,99.90
2019-05-19T15:52:48.987Z,99.90
2019-05-19T15:55:18.523Z,99.90
2019-05-19T15:57:48.040Z,99.90
2019-05-19T16:00:18.038Z,99.90
2019-05-19T16:02:47.583Z,99.90
2019-05-19T16:05:17.228Z,99.90
2019-05-19T16:07:46.987Z,99.90
2019-05-19T16:10:16.999Z,99.90
2019-05-19T16:12:46.515Z,99.90
2019-05-19T16:15:16.718Z,99.90
2019-05-19T16:17:46.271Z,99.90
2019-05-19T16:20:16.409Z,99.90
2019-05-19T16:22:45.958Z,99.90
2019-05-19T16:25:15.859Z,99.90
2019-05-19T16:27:45.455Z,99.90
2019-05-19T16:30:16.439Z,99.90
2019-05-19T16:32:46.013Z,99.90
2019-05-19T16:35:15.817Z,99.90
2019-05-19T16:37:45.360Z,99.90
2019-05-19T16:40:17.025Z,99.90
2019-05-19T16:42:46.812Z,99.90
2019-05-19T16:45:16.543Z,99.90
2019-05-19T16:47:46.115Z,99.90
2019-05-19T16:50:16.327Z,99.90
2019-05-19T16:52:45.879Z,99.90
2019-05-19T16:55:18.169Z,99.90
2019-05-19T16:57:47.715Z,99.90
2019-05-19T17:00:18.863Z,99.90
2019-05-19T17:02:48.448Z,99.90
2019-05-19T17:05:18.138Z,99.90
2019-05-19T17:07:47.741Z,99.90
2019-05-19T17:10:17.528Z,99.90
2019-05-19T17:12:47.236Z,99.90
2019-05-19T17:15:18.077Z,99.90
2019-05-19T17:17:47.858Z,99.90
2019-05-19T17:20:19.167Z,99.90
2019-05-19T17:22:48.727Z,99.90
2019-05-19T17:25:18.844Z,99.90
2019-05-19T17:27:48.539Z,99.90
2019-05-19T17:30:20.217Z,99.90
2019-05-19T17:32:49.751Z,99.90
2019-05-19T17:35:19.810Z,99.90
2019-05-19T17:37:49.445Z,99.90
2019-05-19T17:40:21.005Z,99.90
2019-05-19T17:42:50.577Z,99.90
2019-05-19T17:45:20.622Z,99.90
2019-05-19T17:47:53.180Z,99.90
2019-05-19T17:50:31.190Z,99.90
2019-05-19T17:53:00.850Z,99.90
2019-05-19T17:55:33.066Z,99.90
2019-05-19T17:58:03.778Z,99.90
2019-05-19T18:00:39.412Z,99.90
2019-05-19T18:03:09.503Z,99.90
2019-05-19T18:05:39.182Z,99.90
2019-05-19T18:08:08.835Z,99.90
2019-05-19T18:10:38.400Z,99.90
2019-05-19T18:13:08.028Z,99.90
2019-05-19T18:15:38.189Z,99.90
2019-05-19T18:18:07.820Z,99.90
2019-05-19T18:20:37.738Z,99.90
2019-05-19T18:23:07.513Z,99.90
2019-05-19T18:25:37.096Z,99.90
2019-05-19T18:28:06.839Z,99.90
2019-05-19T18:30:36.466Z,99.90
2019-05-19T18:33:06.021Z,99.90
2019-05-19T18:35:35.574Z,99.90
2019-05-19T18:38:05.394Z,99.90
2019-05-19T18:40:34.976Z,99.90
2019-05-19T18:43:04.773Z,99.90
2019-05-19T18:45:34.463Z,99.90
2019-05-19T18:48:05.705Z,99.90
2019-05-19T18:50:35.404Z,99.90
2019-05-19T18:53:05.123Z,99.90
2019-05-19T18:55:34.689Z,99.90
2019-05-19T18:58:04.330Z,99.90
2019-05-19T19:00:38.907Z,99.90
2019-05-19T19:03:08.755Z,99.90
2019-05-19T19:05:38.388Z,99.90
2019-05-19T19:08:07.982Z,99.90
2019-05-19T19:10:37.584Z,99.90
2019-05-19T19:13:07.175Z,99.90
2019-05-19T19:15:36.768Z,99.90
2019-05-19T19:18:08.236Z,99.90
2019-05-19T19:20:37.869Z,99.90
2019-05-19T19:23:07.432Z,99.90
2019-05-19T19:25:37.034Z,99.90
2019-05-19T19:28:07.022Z,99.90
2019-05-19T19:30:36.664Z,99.90
2019-05-19T19:33:06.351Z,99.90
2019-05-19T19:35:39.029Z,99.90
2019-05-19T19:38:07.386Z,99.90
2019-05-19T19:40:36.943Z,99.90
2019-05-19T19:43:06.750Z,99.90
2019-05-19T19:45:36.503Z,99.90
2019-05-19T19:48:06.709Z,99.90
2019-05-19T19:50:36.326Z,99.90
2019-05-19T19:53:06.077Z,99.90
2019-05-19T19:55:35.615Z,99.90
2019-05-19T19:58:05.383Z,99.90
2019-05-19T20:00:45.892Z,99.90
2019-05-19T20:03:15.541Z,99.90
2019-05-19T20:05:46.351Z,99.90
2019-05-19T20:08:16.138Z,99.90
2019-05-19T20:10:45.706Z,99.90
2019-05-19T20:13:16.301Z,99.90
2019-05-19T20:15:45.922Z,99.90
2019-05-19T20:18:15.463Z,99.90
2019-05-19T20:20:45.160Z,99.90
2019-05-19T20:23:15.424Z,99.90
2019-05-19T20:25:45.074Z,99.90
2019-05-19T20:28:14.717Z,99.90
2019-05-19T20:30:44.211Z,99.90
2019-05-19T20:33:13.721Z,99.90
2019-05-19T20:35:43.289Z,99.90
2019-05-19T20:38:12.787Z,99.90
2019-05-19T20:40:43.061Z,99.90
2019-05-19T20:43:12.948Z,99.90
2019-05-19T20:45:42.560Z,99.90
2019-05-19T20:48:13.713Z,99.90
2019-05-19T20:50:43.568Z,99.90
2019-05-19T20:53:13.486Z,99.90
2019-05-19T20:55:43.046Z,99.90
2019-05-19T20:58:12.735Z,99.90
2019-05-19T21:00:50.432Z,99.90
2019-05-19T21:03:18.651Z,99.90
2019-05-19T21:05:48.336Z,99.90
2019-05-19T21:08:18.337Z,99.90
2019-05-19T21:10:49.683Z,99.90
2019-05-19T21:13:19.330Z,99.90
2019-05-19T21:15:52.343Z,99.90
2019-05-19T21:18:22.474Z,99.90
2019-05-19T21:20:52.214Z,99.90
2019-05-19T21:23:22.207Z,99.90
2019-05-19T21:25:51.910Z,99.90
2019-05-19T21:28:21.413Z,99.90
2019-05-19T21:31:04.916Z,99.90
2019-05-19T21:33:22.394Z,99.90
2019-05-19T21:35:51.888Z,99.90
2019-05-19T21:38:21.465Z,99.90
2019-05-19T21:40:50.978Z,99.90
2019-05-19T21:43:20.821Z,99.90
2019-05-19T21:45:50.393Z,99.90
2019-05-19T21:48:21.670Z,99.90
2019-05-19T21:50:51.172Z,99.90
2019-05-19T21:53:20.745Z,99.90
2019-05-19T21:55:50.273Z,99.90
2019-05-19T21:58:19.901Z,99.90
2019-05-19T22:00:49.866Z,99.90
2019-05-19T22:03:19.357Z,99.90
2019-05-19T22:05:53.465Z,99.90
2019-05-19T22:08:20.455Z,99.90
2019-05-19T22:10:50.003Z,99.90
2019-05-19T22:13:19.639Z,99.90
2019-05-19T22:15:49.182Z,99.90
2019-05-19T22:18:18.999Z,99.90
2019-05-19T22:20:48.534Z,99.90
2019-05-19T22:23:18.025Z,99.90
2019-05-19T22:25:47.530Z,99.90
2019-05-19T22:28:17.210Z,99.90
2019-05-19T22:30:46.746Z,99.90
2019-05-19T22:33:16.607Z,99.90
2019-05-19T22:35:46.269Z,99.90
2019-05-19T22:38:15.728Z,99.90
2019-05-19T22:40:45.254Z,99.90
2019-05-19T22:43:15.009Z,99.90
2019-05-19T22:45:44.585Z,99.90
2019-05-19T22:48:14.060Z,99.90
2019-05-19T22:50:43.566Z,99.90
2019-05-19T22:53:13.086Z,99.90
2019-05-19T22:55:42.819Z,99.90
2019-05-19T22:58:12.708Z,99.90
2019-05-19T23:00:42.185Z,99.90
2019-05-19T23:03:11.702Z,99.90
2019-05-19T23:05:41.280Z,99.90
2019-05-19T23:08:10.807Z,99.90
2019-05-19T23:10:40.456Z,99.90
2019-05-19T23:13:10.060Z,99.90
2019-05-19T23:15:39.785Z,99.90
2019-05-19T23:18:09.500Z,99.90
2019-05-19T23:20:39.093Z,99.90
2019-05-19T23:23:08.602Z,99.90
2019-05-19T23:25:38.219Z,99.90
2019-05-19T23:28:07.832Z,99.90
2019-05-19T23:30:37.406Z,99.90
2019-05-19T23:33:06.899Z,99.90
2019-05-19T23:35:36.551Z,99.90
2019-05-19T23:38:06.120Z,99.90
2019-05-19T23:40:35.667Z,99.90
2019-05-19T23:43:05.206Z,99.90
2019-05-19T23:45:34.778Z,99.90
2019-05-19T23:48:05.083Z,99.90
2019-05-19T23:50:34.595Z,99.90
2019-05-19T23:53:04.114Z,99.90
2019-05-19T23:55:33.755Z,99.90
2019-05-19T23:58:03.315Z,99.90
